Talcott Village, Connecticut
Current Conditions -  °F | °C
As of 12:53 AM on Wednesday 22 Oct 2014 (Local Time) from KHFD Reporting Station
Overcast Overcast  
Wind Chill: 54°   Ceiling: 2200
Heat Index: 54°   Visibility: 10mi
Dew Point: 50°   Wind: 10mph
Humidity: 86%   Direction: 360°N
Pressure: 29.95"   Gusts: NA
Location:  41.7251°N, 72.8318°W
Report Text: KHFD 220453Z AUTO 36009KT 310V020 10SM OVC022 12/10 A2995 RMK AO2 RAB01E30 SLP142 P0000 T01220100 401890061
Loading
Personal Weather Stations






























Interactive Weather Map
Tropical Storm Tracking
New forecast layout! Learn more

10-Day Weather Forecast

Advertisements
Track Severe Weather on mobile